Time;durP1;ratioP1;P1;durP2;ratioP2;P2;SDS_P1;SDS_P2;PMS_P1;PMS_P2;Temp;Humidity;BMP_temperature;BMP_pressure;BME280_temperature;BME280_humidity;BME280_pressure;Samples;Min_cycle;Max_cycle;Signal;HPM_P1;HPM_P2
2023/04/20 00:01:05;;;;;;;7.85;3.83;;;7.10;99.90;;;;;;5076907;28;20481;-82
2023/04/20 00:03:31;;;;;;;9.27;3.27;;;7.20;99.90;;;;;;5059176;28;20438;-83
2023/04/20 00:06:00;;;;;;;5.18;2.72;;;7.40;99.90;;;;;;5076834;28;20059;-83
2023/04/20 00:08:26;;;;;;;5.05;2.97;;;7.20;99.90;;;;;;5076711;28;20044;-84
2023/04/20 00:10:52;;;;;;;5.70;2.85;;;7.20;99.90;;;;;;5075214;28;20124;-83
2023/04/20 00:13:18;;;;;;;3.60;2.50;;;7.10;99.90;;;;;;5075244;28;20127;-83
2023/04/20 00:15:44;;;;;;;4.32;2.72;;;7.10;99.90;;;;;;5058991;28;20044;-83
2023/04/20 00:18:09;;;;;;;6.68;2.70;;;7.10;99.90;;;;;;5076488;28;20047;-83
2023/04/20 00:20:35;;;;;;;4.97;2.72;;;7.10;99.90;;;;;;5076533;28;20519;-83
2023/04/20 00:23:02;;;;;;;4.78;2.85;;;7.00;99.90;;;;;;5076404;28;20041;-83
2023/04/20 00:25:29;;;;;;;3.60;2.67;;;7.10;99.90;;;;;;5058745;28;20434;-84
2023/04/20 00:27:55;;;;;;;6.57;2.78;;;7.00;99.90;;;;;;5075333;28;20504;-84
2023/04/20 00:30:21;;;;;;;4.35;2.90;;;7.00;99.90;;;;;;5075053;28;20411;-83
2023/04/20 00:32:46;;;;;;;7.95;3.00;;;7.00;99.90;;;;;;5075327;28;20041;-83
2023/04/20 00:35:12;;;;;;;5.65;2.75;;;8.20;99.90;;;;;;5058355;28;20490;-83
2023/04/20 00:37:38;;;;;;;3.53;2.45;;;7.10;99.90;;;;;;5058453;28;20094;-83
2023/04/20 00:40:05;;;;;;;5.43;2.47;;;7.20;99.90;;;;;;5075204;28;20052;-83
2023/04/20 00:42:31;;;;;;;4.10;2.58;;;7.20;99.90;;;;;;5075938;28;20068;-84
2023/04/20 00:44:56;;;;;;;3.78;2.58;;;7.20;99.90;;;;;;5076049;28;20472;-82
2023/04/20 00:47:22;;;;;;;6.82;2.65;;;7.30;99.90;;;;;;5058209;28;20086;-84
2023/04/20 00:49:48;;;;;;;5.65;2.53;;;7.30;99.90;;;;;;5074578;28;20044;-83
2023/04/20 00:52:14;;;;;;;9.52;2.88;;;7.40;99.90;;;;;;5073667;28;20040;-83
2023/04/20 00:54:40;;;;;;;5.78;2.47;;;7.40;99.90;;;;;;5074794;28;20040;-84
2023/04/20 00:57:05;;;;;;;9.40;2.85;;;7.40;99.90;;;;;;5074891;28;20465;-83
2023/04/20 00:59:31;;;;;;;7.50;2.78;;;7.50;99.90;;;;;;5075049;28;20086;-84
2023/04/20 01:01:57;;;;;;;6.60;2.60;;;7.50;99.90;;;;;;5075612;28;20170;-83
2023/04/20 01:04:23;;;;;;;5.03;2.63;;;7.50;99.90;;;;;;5075721;28;20083;-83
2023/04/20 01:06:48;;;;;;;5.90;2.40;;;7.50;99.90;;;;;;5076062;28;20040;-83
2023/04/20 01:09:14;;;;;;;5.55;2.42;;;7.60;99.90;;;;;;5057861;28;20495;-83
2023/04/20 01:11:40;;;;;;;6.05;2.40;;;7.60;99.90;;;;;;5074425;28;20067;-83
2023/04/20 01:14:05;;;;;;;5.07;2.60;;;7.70;99.90;;;;;;5075646;28;20043;-82
2023/04/20 01:16:33;;;;;;;3.88;2.35;;;7.80;99.90;;;;;;5075326;28;20045;-82
2023/04/20 01:18:59;;;;;;;3.97;2.50;;;7.80;99.90;;;;;;5075458;28;20173;-82
2023/04/20 01:21:25;;;;;;;4.20;2.45;;;7.80;99.90;;;;;;5075678;28;20059;-83
2023/04/20 01:23:51;;;;;;;5.77;2.57;;;7.90;99.90;;;;;;5075295;28;20123;-82
2023/04/20 01:26:18;;;;;;;6.95;2.97;;;7.90;99.90;;;;;;5075283;28;20370;-83
2023/04/20 01:28:44;;;;;;;;;;;7.90;99.90;;;;;;5075620;28;20055;-83
2023/04/20 01:31:11;;;;;;;3.83;2.63;;;8.80;99.90;;;;;;5075236;28;19931;-82
2023/04/20 01:33:36;;;;;;;4.88;2.53;;;9.00;99.90;;;;;;5073970;28;20071;-83
2023/04/20 01:36:03;;;;;;;4.55;2.10;;;8.20;99.90;;;;;;5074178;28;20481;-82
2023/04/20 01:38:33;;;;;;;;;;;8.10;99.90;;;;;;5074292;28;20494;-83
2023/04/20 01:41:00;;;;;;;8.23;2.67;;;8.90;99.90;;;;;;5073897;28;19927;-82
2023/04/20 01:43:26;;;;;;;3.97;2.25;;;8.10;99.90;;;;;;5075006;28;20044;-83
2023/04/20 01:45:52;;;;;;;3.95;2.50;;;8.20;99.90;;;;;;5057400;28;20040;-81
2023/04/20 01:48:18;;;;;;;5.82;2.55;;;8.20;99.90;;;;;;5074301;28;20040;-83
2023/04/20 01:50:44;;;;;;;3.83;1.98;;;8.10;99.90;;;;;;5074708;28;20048;-82
2023/04/20 01:53:09;;;;;;;6.70;2.28;;;8.10;99.90;;;;;;5057070;28;20045;-82
2023/04/20 01:55:35;;;;;;;4.75;2.35;;;8.10;99.90;;;;;;5073638;28;20040;-82
2023/04/20 01:58:01;;;;;;;3.58;2.20;;;8.20;99.90;;;;;;5056787;28;20046;-81
2023/04/20 02:00:26;;;;;;;3.92;2.20;;;8.20;99.90;;;;;;5074504;28;20396;-82
2023/04/20 02:02:52;;;;;;;4.28;2.20;;;8.70;99.90;;;;;;5056866;28;20110;-82
2023/04/20 02:05:18;;;;;;;5.20;2.08;;;8.20;99.90;;;;;;5074314;28;20040;-83
2023/04/20 02:07:43;;;;;;;3.13;2.10;;;8.90;99.90;;;;;;5074354;28;20040;-82
2023/04/20 02:10:09;;;;;;;6.13;2.25;;;8.20;99.90;;;;;;5073460;28;20127;-83
2023/04/20 02:12:35;;;;;;;4.60;2.13;;;8.20;99.90;;;;;;5073050;28;20080;-83
2023/04/20 02:15:01;;;;;;;6.22;2.13;;;8.20;99.90;;;;;;5074714;28;20079;-82
2023/04/20 02:17:26;;;;;;;2.85;2.05;;;8.10;99.90;;;;;;5073345;28;20139;-83
2023/04/20 02:19:52;;;;;;;8.88;2.50;;;8.10;99.90;;;;;;5074462;28;20094;-83
2023/04/20 02:22:18;;;;;;;5.28;2.30;;;8.10;99.90;;;;;;5073268;28;20044;-82
2023/04/20 02:24:43;;;;;;;4.43;1.92;;;8.10;99.90;;;;;;5072915;28;20075;-82
2023/04/20 02:27:09;;;;;;;4.15;2.20;;;8.10;99.90;;;;;;5074034;28;20044;-83
2023/04/20 02:29:35;;;;;;;4.25;2.22;;;8.10;99.90;;;;;;5073450;28;20403;-83
2023/04/20 02:32:01;;;;;;;4.13;2.05;;;8.00;99.90;;;;;;5072927;28;20044;-83
2023/04/20 02:34:26;;;;;;;5.25;2.72;;;8.50;99.90;;;;;;5056378;28;20076;-83
2023/04/20 02:36:52;;;;;;;5.32;2.47;;;8.00;99.90;;;;;;5073918;28;20037;-82
2023/04/20 02:39:18;;;;;;;4.20;2.20;;;7.90;99.90;;;;;;5073859;28;20040;-82
2023/04/20 02:41:44;;;;;;;7.13;2.47;;;7.90;99.90;;;;;;5056168;28;20041;-81
2023/04/20 02:44:09;;;;;;;3.42;2.10;;;7.90;99.90;;;;;;5077410;28;20056;-83
2023/04/20 02:46:35;;;;;;;5.93;2.55;;;7.80;99.90;;;;;;5074374;28;20044;-82
2023/04/20 02:49:02;;;;;;;5.47;2.60;;;7.90;99.90;;;;;;5076018;28;20071;-82
2023/04/20 02:51:28;;;;;;;3.55;2.53;;;7.80;99.90;;;;;;5074218;28;20040;-83
2023/04/20 02:53:54;;;;;;;7.40;2.90;;;7.80;99.90;;;;;;5039671;28;20052;-82
2023/04/20 02:56:20;;;;;;;6.88;2.75;;;7.80;99.90;;;;;;5072470;28;20127;-82
2023/04/20 02:58:47;;;;;;;6.68;3.03;;;7.80;99.90;;;;;;5055844;28;20079;-81
2023/04/20 03:01:13;;;;;;;7.43;2.40;;;7.80;99.90;;;;;;5072690;28;20044;-82
2023/04/20 03:03:39;;;;;;;7.68;3.17;;;7.90;99.90;;;;;;5056119;28;20048;-82
2023/04/20 03:06:05;;;;;;;5.10;2.58;;;7.80;99.90;;;;;;5073904;28;20052;-82
2023/04/20 03:08:30;;;;;;;5.82;2.80;;;7.80;99.90;;;;;;5072624;28;20500;-81
2023/04/20 03:10:56;;;;;;;5.70;2.85;;;7.80;99.90;;;;;;5055845;28;20092;-83
2023/04/20 03:13:22;;;;;;;3.88;2.50;;;7.90;99.90;;;;;;5072279;28;20436;-83
2023/04/20 03:15:47;;;;;;;9.15;3.72;;;8.10;99.90;;;;;;5071911;28;20044;-82
2023/04/20 03:18:13;;;;;;;3.78;2.20;;;7.80;99.90;;;;;;5073516;28;20041;-82
2023/04/20 03:20:39;;;;;;;7.97;2.78;;;7.90;99.90;;;;;;5072567;28;20495;-82
2023/04/20 03:23:05;;;;;;;5.30;2.40;;;7.90;99.90;;;;;;5072139;28;20110;-82
2023/04/20 03:25:31;;;;;;;5.30;2.35;;;7.90;99.90;;;;;;5072348;28;20045;-81
2023/04/20 03:27:57;;;;;;;7.50;2.80;;;7.80;99.90;;;;;;5072208;28;20397;-82
2023/04/20 03:30:23;;;;;;;5.43;2.70;;;7.80;99.90;;;;;;5072689;28;20404;-83
2023/04/20 03:32:49;;;;;;;5.85;3.20;;;7.80;99.90;;;;;;5072067;28;20037;-83
2023/04/20 03:35:15;;;;;;;5.15;2.28;;;7.80;99.90;;;;;;5056200;28;20086;-82
2023/04/20 03:37:41;;;;;;;5.82;3.05;;;7.80;99.90;;;;;;5073490;28;20095;-83
2023/04/20 03:40:08;;;;;;;8.27;2.90;;;7.80;99.90;;;;;;5072556;28;20080;-82
2023/04/20 03:42:33;;;;;;;6.07;2.85;;;7.80;99.90;;;;;;5072950;28;20048;-82
2023/04/20 03:44:59;;;;;;;8.63;2.85;;;7.80;99.90;;;;;;5073170;28;20051;-82
2023/04/20 03:47:25;;;;;;;7.43;3.50;;;7.90;99.90;;;;;;5073197;28;20049;-82
2023/04/20 03:49:50;;;;;;;8.63;2.67;;;7.80;99.90;;;;;;5073437;28;20068;-83
2023/04/20 03:52:16;;;;;;;8.98;3.10;;;7.80;99.90;;;;;;5071908;28;20469;-82
2023/04/20 03:54:42;;;;;;;8.63;3.47;;;7.80;99.90;;;;;;5073138;28;20047;-82
2023/04/20 03:57:07;;;;;;;5.10;3.03;;;7.80;99.90;;;;;;5073075;28;20119;-81
2023/04/20 03:59:33;;;;;;;8.68;3.05;;;8.60;99.90;;;;;;5073108;28;20389;-82
2023/04/20 04:01:59;;;;;;;6.18;3.20;;;7.80;99.90;;;;;;5073192;28;20124;-82
2023/04/20 04:04:24;;;;;;;7.43;3.05;;;7.80;99.90;;;;;;5072168;28;20040;-82
2023/04/20 04:06:50;;;;;;;4.82;2.30;;;8.00;99.90;;;;;;5073153;28;20051;-82
2023/04/20 04:09:16;;;;;;;5.65;3.15;;;7.90;99.90;;;;;;5072077;28;20122;-82
2023/04/20 04:11:42;;;;;;;6.00;3.17;;;7.80;99.90;;;;;;5071241;28;20392;-82
2023/04/20 04:14:07;;;;;;;5.47;2.33;;;7.80;99.90;;;;;;5055261;28;20052;-82
2023/04/20 04:16:33;;;;;;;4.63;2.70;;;7.90;99.90;;;;;;5073055;28;20495;-82
2023/04/20 04:18:58;;;;;;;3.40;2.30;;;7.90;99.90;;;;;;5073022;28;20044;-82
2023/04/20 04:21:24;;;;;;;3.95;2.35;;;8.20;99.90;;;;;;5072910;28;20044;-82
2023/04/20 04:23:50;;;;;;;5.07;2.42;;;8.60;99.90;;;;;;5071938;28;20129;-82
2023/04/20 04:26:17;;;;;;;7.45;2.35;;;7.90;99.90;;;;;;5071665;28;20421;-83
2023/04/20 04:28:44;;;;;;;5.30;2.60;;;7.90;99.90;;;;;;5075995;28;20123;-82
2023/04/20 04:31:11;;;;;;;5.25;2.33;;;7.90;99.90;;;;;;5076895;28;20123;-82
2023/04/20 04:33:36;;;;;;;3.00;2.20;;;7.90;99.90;;;;;;5076259;28;20048;-81
2023/04/20 04:36:03;;;;;;;4.10;2.25;;;7.90;99.90;;;;;;5075146;28;20102;-82
2023/04/20 04:38:30;;;;;;;6.55;2.25;;;7.90;99.90;;;;;;5075870;28;20052;-82
2023/04/20 04:40:56;;;;;;;;;;;8.00;99.90;;;;;;5076680;28;20051;-82
2023/04/20 04:43:23;;;;;;;8.48;2.40;;;8.30;99.90;;;;;;5076548;28;20368;-83
2023/04/20 04:45:48;;;;;;;4.53;2.20;;;8.00;99.90;;;;;;5074999;28;20045;-82
2023/04/20 04:48:17;;;;;;;3.60;2.08;;;8.10;99.90;;;;;;5076098;28;20499;-82
2023/04/20 04:50:43;;;;;;;4.68;2.00;;;8.00;99.90;;;;;;5075804;28;20056;-82
2023/04/20 04:53:09;;;;;;;3.65;2.10;;;8.00;99.90;;;;;;5058111;28;20052;-83
2023/04/20 04:55:34;;;;;;;4.05;1.80;;;7.90;99.90;;;;;;5074897;28;20044;-80
2023/04/20 04:58:00;;;;;;;3.80;1.90;;;8.00;99.90;;;;;;5074973;28;20090;-83
2023/04/20 05:00:26;;;;;;;3.83;2.05;;;7.90;99.90;;;;;;5074993;28;20040;-82
2023/04/20 05:02:52;;;;;;;5.27;2.07;;;8.00;99.90;;;;;;5074529;28;20041;-83
2023/04/20 05:05:19;;;;;;;3.35;2.15;;;8.00;99.90;;;;;;5075797;28;20040;-83
2023/04/20 05:07:45;;;;;;;3.00;1.85;;;8.00;99.90;;;;;;5057883;28;20058;-83
2023/04/20 05:10:10;;;;;;;5.13;2.30;;;8.00;99.90;;;;;;5074244;28;20161;-82
2023/04/20 05:12:36;;;;;;;4.10;2.33;;;8.00;99.90;;;;;;5075500;28;20049;-82
2023/04/20 05:15:02;;;;;;;4.15;2.47;;;7.90;99.90;;;;;;5075273;28;20511;-81
2023/04/20 05:17:28;;;;;;;4.93;2.33;;;7.90;99.90;;;;;;5075328;28;20045;-82
2023/04/20 05:19:53;;;;;;;4.68;2.10;;;7.90;99.90;;;;;;5074814;28;20139;-82
2023/04/20 05:22:19;;;;;;;4.22;2.35;;;7.90;99.90;;;;;;5075465;28;20404;-82
2023/04/20 05:24:45;;;;;;;3.45;2.20;;;7.90;99.90;;;;;;5074326;28;20480;-82
2023/04/20 05:27:11;;;;;;;5.68;2.28;;;8.30;99.90;;;;;;5075108;28;20100;-81
2023/04/20 05:29:37;;;;;;;4.68;2.60;;;8.10;99.90;;;;;;5075009;28;20127;-81
2023/04/20 05:32:03;;;;;;;6.45;2.70;;;7.80;99.90;;;;;;5075488;28;20045;-81
2023/04/20 05:34:29;;;;;;;2.97;2.23;;;7.80;99.90;;;;;;5075251;28;20040;-82
2023/04/20 05:36:56;;;;;;;4.03;2.50;;;7.80;99.90;;;;;;5075100;28;20048;-81
2023/04/20 05:39:22;;;;;;;3.67;2.45;;;7.70;99.90;;;;;;5074750;28;20090;-81
2023/04/20 05:41:48;;;;;;;5.82;2.72;;;7.70;99.90;;;;;;5073778;28;20044;-80
2023/04/20 05:44:13;;;;;;;5.80;2.80;;;7.60;99.90;;;;;;5075097;28;20123;-80
2023/04/20 05:46:39;;;;;;;3.13;2.28;;;7.60;99.90;;;;;;5075053;28;20047;-82
2023/04/20 05:49:05;;;;;;;5.47;2.72;;;7.70;99.90;;;;;;5074439;28;20392;-80
2023/04/20 05:51:32;;;;;;;6.35;2.70;;;7.50;99.90;;;;;;5074815;28;20052;-79
2023/04/20 05:54:00;;;;;;;7.68;2.95;;;7.40;99.90;;;;;;5074640;28;20059;-79
2023/04/20 05:56:25;;;;;;;4.05;2.65;;;7.40;99.90;;;;;;5073464;28;20499;-81
2023/04/20 05:58:52;;;;;;;5.72;3.42;;;7.30;99.90;;;;;;5075031;28;20044;-80
2023/04/20 06:01:18;;;;;;;3.93;2.60;;;7.30;99.90;;;;;;5074619;28;20036;-79
2023/04/20 06:03:43;;;;;;;8.07;2.83;;;7.30;99.90;;;;;;5073397;28;20093;-80
2023/04/20 06:06:09;;;;;;;6.60;2.80;;;7.20;99.90;;;;;;5074561;28;20045;-79
2023/04/20 06:08:35;;;;;;;5.40;3.22;;;7.20;99.90;;;;;;5074260;28;20051;-79
2023/04/20 06:11:01;;;;;;;4.18;3.28;;;7.20;99.90;;;;;;5074094;28;20135;-79
2023/04/20 06:13:27;;;;;;;7.70;3.07;;;7.10;99.90;;;;;;5073085;28;20079;-80
2023/04/20 06:15:52;;;;;;;5.28;3.33;;;7.10;99.90;;;;;;5074940;28;20084;-80
2023/04/20 06:18:18;;;;;;;9.88;3.88;;;7.00;99.90;;;;;;5075105;28;20041;-85
2023/04/20 06:20:44;;;;;;;5.05;3.53;;;6.90;99.90;;;;;;5079096;28;20044;-81
2023/04/20 06:23:10;;;;;;;5.93;3.30;;;6.90;99.90;;;;;;5074415;28;20369;-82
2023/04/20 06:25:36;;;;;;;7.50;3.60;;;6.90;99.90;;;;;;5072920;28;20124;-82
2023/04/20 06:28:05;;;;;;;8.68;3.85;;;6.80;99.90;;;;;;5074817;28;20530;-85
2023/04/20 06:30:32;;;;;;;10.18;4.03;;;6.70;99.90;;;;;;5073472;28;20044;-83
2023/04/20 06:32:58;;;;;;;;;;;6.70;99.90;;;;;;5056636;28;20048;-80
2023/04/20 06:35:25;;;;;;;6.53;4.35;;;6.70;99.90;;;;;;5073980;28;19921;-81
2023/04/20 06:37:51;;;;;;;6.97;3.90;;;7.10;99.90;;;;;;5074034;28;20101;-84
2023/04/20 06:40:17;;;;;;;7.78;3.72;;;6.70;99.90;;;;;;5055961;28;20048;-81
2023/04/20 06:42:44;;;;;;;5.07;3.40;;;6.80;99.90;;;;;;5074366;28;20040;-83
2023/04/20 06:45:10;;;;;;;5.57;3.43;;;6.70;99.90;;;;;;5056830;28;20634;-81
2023/04/20 06:47:35;;;;;;;6.38;3.78;;;6.70;99.90;;;;;;5073862;28;20294;-83
2023/04/20 06:50:03;;;;;;;5.57;2.80;;;6.70;99.90;;;;;;5071739;28;20136;-82
2023/04/20 06:52:30;;;;;;;4.90;3.50;;;6.70;99.90;;;;;;5073715;28;20044;-81
2023/04/20 06:54:58;;;;;;;7.50;4.00;;;7.90;99.90;;;;;;5073163;28;20050;-79
2023/04/20 06:57:23;;;;;;;6.55;3.75;;;7.20;99.90;;;;;;5073828;28;20037;-79
2023/04/20 06:59:49;;;;;;;7.32;3.70;;;6.60;99.90;;;;;;5073588;28;20480;-81
2023/04/20 07:02:15;;;;;;;7.80;2.88;;;7.10;99.90;;;;;;5056142;28;20084;-79
2023/04/20 07:04:40;;;;;;;5.53;3.30;;;6.60;99.90;;;;;;5073577;28;20099;-80
2023/04/20 07:07:06;;;;;;;6.10;3.33;;;6.50;99.90;;;;;;5073616;28;20041;-79
2023/04/20 07:09:31;;;;;;;5.15;3.08;;;7.30;99.90;;;;;;5073638;28;20040;-77
2023/04/20 07:11:57;;;;;;;8.55;3.17;;;6.40;99.90;;;;;;5073572;28;20496;-78
2023/04/20 07:14:23;;;;;;;7.78;3.53;;;6.50;99.90;;;;;;5073654;28;20044;-79
2023/04/20 07:16:52;;;;;;;4.93;3.13;;;6.50;99.90;;;;;;5072342;28;20055;-80
2023/04/20 07:19:18;;;;;;;8.00;3.63;;;6.90;99.90;;;;;;5073658;28;20388;-79
2023/04/20 07:21:44;;;;;;;4.70;3.60;;;6.70;99.90;;;;;;5071040;28;20052;-80
2023/04/20 07:24:09;;;;;;;8.27;3.10;;;6.50;99.90;;;;;;5072481;28;20063;-80
2023/04/20 07:26:35;;;;;;;6.15;3.20;;;6.60;99.90;;;;;;5071671;28;20523;-80
2023/04/20 07:29:00;;;;;;;7.22;2.97;;;6.70;99.90;;;;;;5073639;28;20040;-81
2023/04/20 07:31:26;;;;;;;3.90;2.97;;;6.70;99.90;;;;;;5089288;28;20044;-82
2023/04/20 07:33:52;;;;;;;8.57;3.60;;;6.70;99.90;;;;;;5073384;28;20055;-80
2023/04/20 07:36:18;;;;;;;6.65;3.22;;;6.70;99.90;;;;;;5073411;28;20489;-81
2023/04/20 07:38:44;;;;;;;6.88;3.47;;;6.80;99.90;;;;;;5072105;28;20041;-80
2023/04/20 07:41:10;;;;;;;5.30;3.10;;;7.60;99.90;;;;;;5072278;28;20049;-80
2023/04/20 07:43:36;;;;;;;7.50;3.70;;;7.00;99.90;;;;;;5071970;28;20047;-80
2023/04/20 07:46:02;;;;;;;7.07;3.50;;;7.10;99.90;;;;;;5071998;28;20098;-79
2023/04/20 07:48:27;;;;;;;7.63;3.85;;;7.20;99.90;;;;;;5071876;28;20477;-79
2023/04/20 07:50:53;;;;;;;5.90;3.55;;;7.30;99.90;;;;;;5073212;28;20063;-79
2023/04/20 07:53:19;;;;;;;6.13;3.78;;;7.50;99.90;;;;;;5071926;28;20466;-79
2023/04/20 07:55:44;;;;;;;8.95;3.42;;;7.50;99.90;;;;;;5073063;28;20063;-80
2023/04/20 07:58:10;;;;;;;8.60;3.67;;;7.50;99.90;;;;;;5073031;28;20071;-79
2023/04/20 08:00:36;;;;;;;7.73;3.30;;;7.50;99.90;;;;;;5071691;28;20468;-80
2023/04/20 08:03:02;;;;;;;5.30;3.40;;;7.50;99.90;;;;;;5076906;28;20277;-79
2023/04/20 08:05:28;;;;;;;6.80;3.63;;;7.60;99.90;;;;;;5076869;28;20495;-80
2023/04/20 08:07:53;;;;;;;8.07;3.40;;;7.50;99.90;;;;;;5076747;28;20175;-79
2023/04/20 08:10:19;;;;;;;9.98;3.45;;;7.50;99.90;;;;;;5075632;28;20053;-80
2023/04/20 08:12:45;;;;;;;9.68;4.13;;;7.60;99.90;;;;;;5076425;28;20153;-79
2023/04/20 08:15:11;;;;;;;10.15;4.28;;;7.50;99.90;;;;;;5075588;28;20059;-79
2023/04/20 08:17:37;;;;;;;6.88;4.53;;;7.50;99.90;;;;;;5076674;28;20036;-80
2023/04/20 08:20:04;;;;;;;8.23;3.78;;;7.50;99.90;;;;;;5076541;28;20113;-79
2023/04/20 08:22:31;;;;;;;8.75;4.22;;;7.50;99.90;;;;;;5076549;28;20045;-80
2023/04/20 08:24:56;;;;;;;9.57;4.17;;;7.50;99.90;;;;;;5077235;28;20079;-80
2023/04/20 08:27:22;;;;;;;6.93;3.42;;;7.60;99.90;;;;;;5075760;28;20550;-78
2023/04/20 08:29:48;;;;;;;7.72;4.25;;;7.70;99.90;;;;;;5076254;28;20080;-78
2023/04/20 08:32:14;;;;;;;8.57;3.90;;;7.90;99.90;;;;;;5076267;28;20041;-79
2023/04/20 08:34:40;;;;;;;14.75;4.53;;;8.00;99.90;;;;;;5076196;28;20076;-80
2023/04/20 08:37:06;;;;;;;6.30;3.47;;;8.10;99.90;;;;;;5076042;28;20408;-81
2023/04/20 08:39:31;;;;;;;6.22;4.28;;;8.10;99.90;;;;;;5076282;28;20040;-79
2023/04/20 08:41:57;;;;;;;7.18;4.47;;;8.20;99.90;;;;;;5076235;28;20070;-80
2023/04/20 08:44:23;;;;;;;8.73;4.32;;;8.40;99.90;;;;;;5076194;28;20045;-80
2023/04/20 08:46:50;;;;;;;7.13;4.43;;;8.50;99.90;;;;;;5076027;28;20055;-79
2023/04/20 08:49:16;;;;;;;8.25;4.05;;;8.50;99.90;;;;;;5074408;28;20053;-80
2023/04/20 08:51:46;;;;;;;6.55;4.00;;;8.50;99.90;;;;;;5075104;28;20057;-80
2023/04/20 08:54:13;;;;;;;7.22;4.13;;;8.40;99.90;;;;;;5076001;28;20131;-80
2023/04/20 08:56:44;;;;;;;11.50;4.88;;;8.40;99.90;;;;;;5076373;28;20446;-80
2023/04/20 08:59:13;;;;;;;9.75;4.35;;;8.50;99.90;;;;;;5075861;28;20055;-79
2023/04/20 09:01:40;;;;;;;7.80;4.30;;;8.90;99.90;;;;;;5075802;28;20044;-79
2023/04/20 09:04:23;;;;;;;9.20;4.60;;;8.30;99.90;;;;;;5075731;28;20080;-82
2023/04/20 09:06:51;;;;;;;8.60;4.70;;;8.30;99.90;;;;;;5074725;28;20055;-79
2023/04/20 09:09:17;;;;;;;8.95;4.80;;;8.40;99.90;;;;;;5075610;28;20047;-79
2023/04/20 09:11:43;;;;;;;10.75;4.35;;;8.40;99.90;;;;;;5075504;28;20040;-79
2023/04/20 09:14:14;;;;;;;6.75;4.45;;;9.10;99.90;;;;;;5074785;28;20134;-80
2023/04/20 09:17:03;;;;;;;7.80;4.80;;;8.60;99.90;;;;;;5075604;28;20072;-79
2023/04/20 09:19:30;;;;;;;9.05;4.57;;;8.60;99.90;;;;;;5075568;28;20469;-79
2023/04/20 09:22:04;;;;;;;6.93;4.55;;;8.90;99.90;;;;;;5075455;28;20141;-78
2023/04/20 09:24:35;;;;;;;8.98;4.40;;;9.00;99.90;;;;;;5074553;28;20045;-79
2023/04/20 09:27:17;;;;;;;8.85;4.60;;;9.00;99.90;;;;;;5075439;28;20089;-78
2023/04/20 09:29:44;;;;;;;9.23;5.00;;;8.90;99.90;;;;;;5058055;28;20178;-79
2023/04/20 09:32:26;;;;;;;8.55;4.53;;;9.40;99.90;;;;;;5075198;28;20087;-79
2023/04/20 09:34:52;;;;;;;11.70;5.15;;;8.90;99.90;;;;;;5075134;28;20468;-79
2023/04/20 09:37:18;;;;;;;7.97;4.90;;;9.10;99.90;;;;;;5074115;28;20094;-80
2023/04/20 09:39:44;;;;;;;8.98;5.32;;;8.80;99.90;;;;;;5075189;28;20093;-79
2023/04/20 09:42:14;;;;;;;10.25;5.40;;;9.10;99.90;;;;;;5075212;28;20047;-79
2023/04/20 09:44:40;;;;;;;7.80;4.90;;;9.00;99.90;;;;;;5075019;28;20055;-79
2023/04/20 09:47:07;;;;;;;8.17;5.00;;;9.40;99.90;;;;;;5075015;28;20052;-79
2023/04/20 09:49:33;;;;;;;11.15;5.53;;;9.30;99.90;;;;;;5075193;28;20110;-80
2023/04/20 09:52:03;;;;;;;8.93;5.33;;;9.50;99.90;;;;;;5074807;28;20040;-80
2023/04/20 09:54:29;;;;;;;9.63;5.80;;;9.40;99.90;;;;;;5074917;28;20053;-79
2023/04/20 09:56:57;;;;;;;6.22;4.55;;;9.30;99.90;;;;;;5075203;28;20048;-79
2023/04/20 09:59:25;;;;;;;8.15;5.40;;;9.90;99.90;;;;;;5074613;28;20115;-79
2023/04/20 10:01:50;;;;;;;9.60;5.40;;;9.20;99.90;;;;;;5074769;28;20056;-80
2023/04/20 10:04:16;;;;;;;9.43;5.72;;;9.70;99.90;;;;;;5074866;28;20044;-79
2023/04/20 10:06:56;;;;;;;11.43;5.88;;;9.50;99.90;;;;;;5074550;28;20044;-80
2023/04/20 10:09:24;;;;;;;9.18;6.32;;;9.10;99.90;;;;;;5074607;28;20087;-80
2023/04/20 10:11:51;;;;;;;8.07;5.13;;;9.00;99.90;;;;;;5074403;28;20052;-79
2023/04/20 10:14:20;;;;;;;9.10;6.40;;;9.40;99.90;;;;;;5074364;28;20053;-79
2023/04/20 10:16:57;;;;;;;9.60;6.15;;;9.00;99.90;;;;;;5073370;28;20089;-79
2023/04/20 10:19:23;;;;;;;12.05;6.90;;;9.10;99.90;;;;;;5074283;28;20129;-79
2023/04/20 10:21:50;;;;;;;6.95;5.70;;;9.20;99.90;;;;;;5074336;28;20044;-79
2023/04/20 10:24:28;;;;;;;11.43;7.13;;;9.90;99.90;;;;;;5074195;28;20045;-79
2023/04/20 10:26:53;;;;;;;8.77;6.13;;;9.30;99.90;;;;;;5074468;28;20067;-79
2023/04/20 10:29:27;;;;;;;9.55;6.35;;;9.30;99.90;;;;;;5074353;28;20064;-78
2023/04/20 10:31:53;;;;;;;11.63;7.38;;;9.30;99.90;;;;;;5073941;28;20032;-79
2023/04/20 10:34:35;;;;;;;10.60;6.55;;;9.40;99.90;;;;;;5073860;28;20051;-79
2023/04/20 10:37:11;;;;;;;11.38;6.78;;;9.50;99.90;;;;;;5073949;28;20044;-78
2023/04/20 10:39:45;;;;;;;9.02;6.70;;;9.60;99.90;;;;;;5073997;28;20044;-79
2023/04/20 10:42:10;;;;;;;12.00;6.55;;;9.70;99.90;;;;;;5074111;28;20048;-78
2023/04/20 10:44:52;;;;;;;7.78;6.38;;;9.80;99.90;;;;;;5073861;28;20041;-79
2023/04/20 10:47:30;;;;;;;9.60;6.30;;;10.10;99.90;;;;;;5074387;28;20407;-80
2023/04/20 10:50:28;;;;;;;11.85;7.13;;;10.30;99.90;;;;;;5072357;28;20516;-80
2023/04/20 10:52:53;;;;;;;10.52;6.20;;;10.60;99.90;;;;;;5050559;28;20067;-80
2023/04/20 10:55:22;;;;;;;8.55;5.47;;;10.70;99.90;;;;;;5073783;28;20464;-79
2023/04/20 10:57:49;;;;;;;9.40;6.07;;;10.50;99.90;;;;;;5073746;28;20391;-79
2023/04/20 11:00:15;;;;;;;11.73;5.63;;;10.50;99.90;;;;;;5073946;28;20044;-80
2023/04/20 11:02:46;;;;;;;7.53;5.57;;;10.50;99.90;;;;;;5072303;28;20313;-79
2023/04/20 11:05:12;;;;;;;8.13;5.65;;;10.60;99.90;;;;;;5073690;28;20041;-79
2023/04/20 11:07:52;;;;;;;10.13;6.32;;;10.40;99.90;;;;;;5073553;28;20388;-80
2023/04/20 11:10:20;;;;;;;9.15;5.38;;;10.60;99.90;;;;;;5074144;28;20046;-79
2023/04/20 11:12:45;;;;;;;8.35;5.47;;;10.90;99.90;;;;;;5073412;28;20047;-80
2023/04/20 11:15:12;;;;;;;7.03;5.45;;;11.10;99.90;;;;;;5072335;28;20045;-79
2023/04/20 11:17:38;;;;;;;9.25;5.50;;;11.30;99.90;;;;;;5073517;28;20044;-80
2023/04/20 11:20:15;;;;;;;9.85;5.57;;;11.40;99.90;;;;;;5073555;28;20388;-80
2023/04/20 11:22:42;;;;;;;10.90;5.93;;;11.40;99.90;;;;;;5073926;28;20051;-80
2023/04/20 11:25:10;;;;;;;8.85;5.65;;;11.30;99.90;;;;;;5073481;28;20056;-80
2023/04/20 11:27:37;;;;;;;11.85;5.90;;;11.10;99.90;;;;;;5073700;28;20049;-80
2023/04/20 11:30:04;;;;;;;9.15;5.90;;;11.00;99.90;;;;;;5073291;28;20137;-80
2023/04/20 11:32:31;;;;;;;8.15;5.72;;;11.00;99.90;;;;;;5073388;28;20048;-80
2023/04/20 11:35:06;;;;;;;9.60;6.13;;;11.30;99.90;;;;;;5073099;28;20044;-79
2023/04/20 11:37:33;;;;;;;7.93;5.47;;;11.50;99.90;;;;;;5077129;28;20032;-78
2023/04/20 11:40:09;;;;;;;10.75;6.18;;;11.70;99.90;;;;;;5077140;28;20086;-79
2023/04/20 11:42:35;;;;;;;10.70;6.13;;;11.80;99.90;;;;;;5077971;28;20040;-80
2023/04/20 11:45:01;;;;;;;9.15;5.57;;;11.70;99.90;;;;;;5077273;28;20049;-79
2023/04/20 11:47:27;;;;;;;8.80;5.07;;;11.60;99.90;;;;;;5077398;28;20062;-81
2023/04/20 11:49:52;;;;;;;8.90;5.68;;;11.50;99.90;;;;;;5077293;28;20050;-79
2023/04/20 11:52:18;;;;;;;7.47;4.97;;;11.80;99.90;;;;;;5075994;28;20053;-80
2023/04/20 11:54:44;;;;;;;7.90;4.88;;;11.30;99.90;;;;;;5077069;28;20083;-80
2023/04/20 11:57:10;;;;;;;9.02;5.50;;;11.20;99.90;;;;;;5076300;28;20430;-81
2023/04/20 11:59:36;;;;;;;11.48;5.53;;;11.10;99.90;;;;;;5077100;28;20381;-79
2023/04/20 12:02:02;;;;;;;7.68;5.50;;;11.20;99.90;;;;;;5076933;28;20040;-79
2023/04/20 12:04:30;;;;;;;11.18;6.32;;;11.50;99.90;;;;;;5076897;28;20045;-80
2023/04/20 12:06:58;;;;;;;12.73;6.38;;;11.60;99.90;;;;;;5076778;28;20173;-80
2023/04/20 12:09:24;;;;;;;9.20;5.75;;;11.80;99.90;;;;;;5076822;28;20052;-80
2023/04/20 12:11:50;;;;;;;9.68;5.85;;;11.70;99.90;;;;;;5076667;28;20044;-80
2023/04/20 12:14:16;;;;;;;10.25;6.00;;;11.50;99.90;;;;;;5076886;28;20051;-80
2023/04/20 12:16:41;;;;;;;8.70;5.60;;;11.50;99.90;;;;;;5075772;28;20139;-79
2023/04/20 12:19:07;;;;;;;9.30;5.38;;;11.20;99.90;;;;;;5077072;28;20083;-80
2023/04/20 12:21:33;;;;;;;6.88;4.93;;;11.40;99.90;;;;;;5076526;28;20047;-81
2023/04/20 12:23:59;;;;;;;9.77;5.63;;;11.70;99.90;;;;;;5075554;28;20463;-81
2023/04/20 12:26:25;;;;;;;11.05;5.43;;;12.10;99.90;;;;;;5076499;28;20048;-78
2023/04/20 12:28:51;;;;;;;8.27;4.97;;;12.40;99.90;;;;;;5076998;28;20080;-78
2023/04/20 12:31:16;;;;;;;6.85;4.80;;;12.90;99.90;;;;;;5076422;28;20084;-78
2023/04/20 12:33:43;;;;;;;9.02;5.47;;;12.40;99.90;;;;;;5076137;28;20037;-79
2023/04/20 12:36:09;;;;;;;9.55;4.93;;;12.30;99.90;;;;;;5076319;28;20484;-79
2023/04/20 12:38:35;;;;;;;13.60;5.60;;;12.00;99.90;;;;;;5076578;28;20056;-79
2023/04/20 12:41:01;;;;;;;9.30;5.93;;;11.70;99.90;;;;;;5076480;28;20094;-80
2023/04/20 12:43:27;;;;;;;10.95;5.57;;;11.50;99.90;;;;;;5076480;28;20044;-79
2023/04/20 12:45:53;;;;;;;7.57;5.15;;;11.50;99.90;;;;;;5076112;28;20055;-80
2023/04/20 12:48:19;;;;;;;9.30;6.05;;;11.40;99.90;;;;;;5075410;28;20458;-80
2023/04/20 12:50:44;;;;;;;9.70;5.35;;;11.50;99.90;;;;;;5076532;28;20083;-80
2023/04/20 12:53:10;;;;;;;11.00;5.53;;;11.50;99.90;;;;;;5074813;28;20477;-79